Terminal Aerodrome Forecast
Issued by NWS

Home | Current Version | Previous Version | Graphics & Text | Print | Product List | Glossary On
Versions: 1 2 3 4 5 6 7 8 9 10 11 12 13 14
000
FTUS43 KGRB 202335
TAFRHI
TAF
KRHI 202335Z 2100/2124 VRB03KT P6SM FEW250
     FM210800 31008G15KT P6SM SCT040
     FM211000 31008G15KT P6SM BKN025 BKN040
     FM211400 34010G17KT P6SM BKN045
     FM212300 35007KT P6SM BKN050=

USA.gov is the U.S. government's official web portal to all federal, state and local government web resources and services.